sensor_id;sensor_type;location;lat;lon;timestamp;P1;durP1;ratioP1;P2;durP2;ratioP2
26824;SDS011;14402;48.178;11.566;2024-03-22T00:00:17;11.1;;;9.5;;
26824;SDS011;14402;48.178;11.566;2024-03-22T00:00:47;11.0;;;9.6;;
26824;SDS011;14402;48.178;11.566;2024-03-22T00:01:17;10.9;;;9.8;;
26824;SDS011;14402;48.178;11.566;2024-03-22T00:01:47;10.9;;;9.8;;
26824;SDS011;14402;48.178;11.566;2024-03-22T00:02:17;10.9;;;9.8;;
26824;SDS011;14402;48.178;11.566;2024-03-22T00:02:47;10.6;;;9.6;;
26824;SDS011;14402;48.178;11.566;2024-03-22T00:03:17;10.3;;;9.3;;
26824;SDS011;14402;48.178;11.566;2024-03-22T00:03:47;10.3;;;9.3;;
26824;SDS011;14402;48.178;11.566;2024-03-22T00:04:17;10.3;;;9.3;;
26824;SDS011;14402;48.178;11.566;2024-03-22T00:04:47;10.3;;;9.3;;
26824;SDS011;14402;48.178;11.566;2024-03-22T00:05:18;10.3;;;9.3;;
26824;SDS011;14402;48.178;11.566;2024-03-22T00:05:48;10.3;;;9.3;;
26824;SDS011;14402;48.178;11.566;2024-03-22T00:06:18;10.3;;;9.3;;
26824;SDS011;14402;48.178;11.566;2024-03-22T00:06:48;10.1;;;9.1;;
26824;SDS011;14402;48.178;11.566;2024-03-22T00:07:18;9.8;;;8.8;;
26824;SDS011;14402;48.178;11.566;2024-03-22T00:07:48;9.8;;;8.8;;
26824;SDS011;14402;48.178;11.566;2024-03-22T00:08:18;9.8;;;8.8;;
26824;SDS011;14402;48.178;11.566;2024-03-22T00:08:48;11.1;;;9.4;;
26824;SDS011;14402;48.178;11.566;2024-03-22T00:09:18;12.3;;;10.0;;
26824;SDS011;14402;48.178;11.566;2024-03-22T00:09:48;12.3;;;10.0;;
26824;SDS011;14402;48.178;11.566;2024-03-22T00:10:18;12.3;;;10.0;;
26824;SDS011;14402;48.178;11.566;2024-03-22T00:10:48;11.2;;;9.6;;
26824;SDS011;14402;48.178;11.566;2024-03-22T00:11:18;10.2;;;9.2;;
26824;SDS011;14402;48.178;11.566;2024-03-22T00:11:48;10.2;;;9.2;;
26824;SDS011;14402;48.178;11.566;2024-03-22T00:12:18;10.2;;;9.2;;
26824;SDS011;14402;48.178;11.566;2024-03-22T00:12:49;11.0;;;9.4;;
26824;SDS011;14402;48.178;11.566;2024-03-22T00:13:18;11.9;;;9.6;;
26824;SDS011;14402;48.178;11.566;2024-03-22T00:13:48;11.9;;;9.6;;
26824;SDS011;14402;48.178;11.566;2024-03-22T00:14:19;11.9;;;9.6;;
26824;SDS011;14402;48.178;11.566;2024-03-22T00:14:49;11.6;;;9.4;;
26824;SDS011;14402;48.178;11.566;2024-03-22T00:15:19;11.3;;;9.2;;
26824;SDS011;14402;48.178;11.566;2024-03-22T00:15:49;11.3;;;9.2;;
26824;SDS011;14402;48.178;11.566;2024-03-22T00:16:19;11.3;;;9.2;;
26824;SDS011;14402;48.178;11.566;2024-03-22T00:16:49;10.9;;;9.3;;
26824;SDS011;14402;48.178;11.566;2024-03-22T00:17:20;10.5;;;9.4;;
26824;SDS011;14402;48.178;11.566;2024-03-22T00:17:49;10.5;;;9.4;;
26824;SDS011;14402;48.178;11.566;2024-03-22T00:18:19;10.5;;;9.4;;
26824;SDS011;14402;48.178;11.566;2024-03-22T00:18:49;10.2;;;9.2;;
26824;SDS011;14402;48.178;11.566;2024-03-22T00:19:19;10.0;;;9.0;;
26824;SDS011;14402;48.178;11.566;2024-03-22T00:19:49;10.0;;;9.0;;
26824;SDS011;14402;48.178;11.566;2024-03-22T00:20:19;10.0;;;9.0;;
26824;SDS011;14402;48.178;11.566;2024-03-22T00:20:49;10.1;;;9.0;;
26824;SDS011;14402;48.178;11.566;2024-03-22T00:21:20;10.2;;;9.0;;
26824;SDS011;14402;48.178;11.566;2024-03-22T00:21:49;10.2;;;9.0;;
26824;SDS011;14402;48.178;11.566;2024-03-22T00:22:19;10.2;;;9.0;;
26824;SDS011;14402;48.178;11.566;2024-03-22T00:22:50;10.4;;;9.2;;
26824;SDS011;14402;48.178;11.566;2024-03-22T00:23:20;10.6;;;9.5;;
26824;SDS011;14402;48.178;11.566;2024-03-22T00:23:50;10.6;;;9.5;;
26824;SDS011;14402;48.178;11.566;2024-03-22T00:24:20;10.6;;;9.5;;
26824;SDS011;14402;48.178;11.566;2024-03-22T00:24:50;10.2;;;9.2;;
26824;SDS011;14402;48.178;11.566;2024-03-22T00:25:20;9.8;;;8.9;;
26824;SDS011;14402;48.178;11.566;2024-03-22T00:25:50;9.8;;;8.9;;
26824;SDS011;14402;48.178;11.566;2024-03-22T00:26:20;9.8;;;8.9;;
26824;SDS011;14402;48.178;11.566;2024-03-22T00:26:50;9.7;;;8.8;;
26824;SDS011;14402;48.178;11.566;2024-03-22T00:27:20;9.6;;;8.6;;
26824;SDS011;14402;48.178;11.566;2024-03-22T00:27:50;9.6;;;8.6;;
26824;SDS011;14402;48.178;11.566;2024-03-22T00:28:20;9.6;;;8.6;;
26824;SDS011;14402;48.178;11.566;2024-03-22T00:28:50;9.9;;;8.9;;
26824;SDS011;14402;48.178;11.566;2024-03-22T00:29:20;10.1;;;9.1;;
26824;SDS011;14402;48.178;11.566;2024-03-22T00:29:50;10.1;;;9.1;;
26824;SDS011;14402;48.178;11.566;2024-03-22T00:30:20;10.1;;;9.1;;
26824;SDS011;14402;48.178;11.566;2024-03-22T00:30:50;10.3;;;9.2;;
26824;SDS011;14402;48.178;11.566;2024-03-22T00:31:21;10.5;;;9.4;;
26824;SDS011;14402;48.178;11.566;2024-03-22T00:31:51;10.5;;;9.4;;
26824;SDS011;14402;48.178;11.566;2024-03-22T00:32:21;10.5;;;9.4;;
26824;SDS011;14402;48.178;11.566;2024-03-22T00:32:51;10.6;;;9.4;;
26824;SDS011;14402;48.178;11.566;2024-03-22T00:33:21;10.7;;;9.3;;
26824;SDS011;14402;48.178;11.566;2024-03-22T00:33:51;10.7;;;9.3;;
26824;SDS011;14402;48.178;11.566;2024-03-22T00:34:21;10.7;;;9.3;;
26824;SDS011;14402;48.178;11.566;2024-03-22T00:34:51;10.5;;;9.2;;
26824;SDS011;14402;48.178;11.566;2024-03-22T00:35:21;10.3;;;9.2;;
26824;SDS011;14402;48.178;11.566;2024-03-22T00:35:51;10.3;;;9.2;;
26824;SDS011;14402;48.178;11.566;2024-03-22T00:36:21;10.3;;;9.2;;
26824;SDS011;14402;48.178;11.566;2024-03-22T00:36:51;10.1;;;9.1;;
26824;SDS011;14402;48.178;11.566;2024-03-22T00:37:21;10.0;;;9.1;;
26824;SDS011;14402;48.178;11.566;2024-03-22T00:37:51;10.0;;;9.1;;
26824;SDS011;14402;48.178;11.566;2024-03-22T00:38:21;10.0;;;9.1;;
26824;SDS011;14402;48.178;11.566;2024-03-22T00:38:51;10.4;;;9.5;;
26824;SDS011;14402;48.178;11.566;2024-03-22T00:39:21;10.9;;;9.9;;
26824;SDS011;14402;48.178;11.566;2024-03-22T00:39:51;10.9;;;9.9;;
26824;SDS011;14402;48.178;11.566;2024-03-22T00:40:21;10.9;;;9.9;;
26824;SDS011;14402;48.178;11.566;2024-03-22T00:40:51;10.5;;;9.5;;
26824;SDS011;14402;48.178;11.566;2024-03-22T00:41:22;10.1;;;9.1;;
26824;SDS011;14402;48.178;11.566;2024-03-22T00:41:52;10.1;;;9.1;;
26824;SDS011;14402;48.178;11.566;2024-03-22T00:42:22;10.1;;;9.1;;
26824;SDS011;14402;48.178;11.566;2024-03-22T00:42:52;10.3;;;9.3;;
26824;SDS011;14402;48.178;11.566;2024-03-22T00:43:22;10.5;;;9.5;;
26824;SDS011;14402;48.178;11.566;2024-03-22T00:43:52;10.5;;;9.5;;
26824;SDS011;14402;48.178;11.566;2024-03-22T00:44:22;10.5;;;9.5;;
26824;SDS011;14402;48.178;11.566;2024-03-22T00:44:52;10.6;;;9.4;;
26824;SDS011;14402;48.178;11.566;2024-03-22T00:45:22;10.7;;;9.3;;
26824;SDS011;14402;48.178;11.566;2024-03-22T00:45:52;10.7;;;9.3;;
26824;SDS011;14402;48.178;11.566;2024-03-22T00:46:22;10.7;;;9.3;;
26824;SDS011;14402;48.178;11.566;2024-03-22T00:46:52;10.4;;;9.1;;
26824;SDS011;14402;48.178;11.566;2024-03-22T00:47:22;10.0;;;9.0;;
26824;SDS011;14402;48.178;11.566;2024-03-22T00:47:52;10.0;;;9.0;;
26824;SDS011;14402;48.178;11.566;2024-03-22T00:48:22;10.0;;;9.0;;
26824;SDS011;14402;48.178;11.566;2024-03-22T00:48:52;9.7;;;8.8;;
26824;SDS011;14402;48.178;11.566;2024-03-22T00:49:22;9.4;;;8.5;;
26824;SDS011;14402;48.178;11.566;2024-03-22T00:49:52;9.4;;;8.5;;
26824;SDS011;14402;48.178;11.566;2024-03-22T00:50:22;9.4;;;8.5;;
26824;SDS011;14402;48.178;11.566;2024-03-22T00:50:53;10.0;;;8.8;;
26824;SDS011;14402;48.178;11.566;2024-03-22T00:51:23;10.7;;;9.1;;
26824;SDS011;14402;48.178;11.566;2024-03-22T00:51:53;10.7;;;9.1;;
26824;SDS011;14402;48.178;11.566;2024-03-22T00:52:23;10.7;;;9.1;;
26824;SDS011;14402;48.178;11.566;2024-03-22T00:52:53;10.4;;;9.1;;
26824;SDS011;14402;48.178;11.566;2024-03-22T00:53:23;10.0;;;9.0;;
26824;SDS011;14402;48.178;11.566;2024-03-22T00:53:53;10.0;;;9.0;;
26824;SDS011;14402;48.178;11.566;2024-03-22T00:54:23;10.0;;;9.0;;
26824;SDS011;14402;48.178;11.566;2024-03-22T00:54:53;9.9;;;8.9;;
26824;SDS011;14402;48.178;11.566;2024-03-22T00:55:23;9.8;;;8.8;;
26824;SDS011;14402;48.178;11.566;2024-03-22T00:55:53;9.8;;;8.8;;
26824;SDS011;14402;48.178;11.566;2024-03-22T00:56:23;9.8;;;8.8;;
26824;SDS011;14402;48.178;11.566;2024-03-22T00:56:53;9.9;;;8.9;;
26824;SDS011;14402;48.178;11.566;2024-03-22T00:57:23;10.0;;;9.0;;
26824;SDS011;14402;48.178;11.566;2024-03-22T00:57:53;10.0;;;9.0;;
26824;SDS011;14402;48.178;11.566;2024-03-22T00:58:23;10.0;;;9.0;;
26824;SDS011;14402;48.178;11.566;2024-03-22T00:58:53;10.1;;;9.0;;
26824;SDS011;14402;48.178;11.566;2024-03-22T00:59:23;10.1;;;9.0;;
26824;SDS011;14402;48.178;11.566;2024-03-22T00:59:54;10.1;;;9.0;;
26824;SDS011;14402;48.178;11.566;2024-03-22T01:00:24;10.1;;;9.0;;
26824;SDS011;14402;48.178;11.566;2024-03-22T01:00:54;10.1;;;9.0;;
26824;SDS011;14402;48.178;11.566;2024-03-22T01:01:24;10.0;;;9.0;;
26824;SDS011;14402;48.178;11.566;2024-03-22T01:01:54;10.0;;;9.0;;
26824;SDS011;14402;48.178;11.566;2024-03-22T01:02:24;10.0;;;9.0;;
26824;SDS011;14402;48.178;11.566;2024-03-22T01:02:54;9.9;;;8.9;;
26824;SDS011;14402;48.178;11.566;2024-03-22T01:03:24;9.9;;;8.9;;
26824;SDS011;14402;48.178;11.566;2024-03-22T01:03:54;9.9;;;8.9;;
26824;SDS011;14402;48.178;11.566;2024-03-22T01:04:24;9.9;;;8.9;;
26824;SDS011;14402;48.178;11.566;2024-03-22T01:04:54;10.1;;;9.1;;
26824;SDS011;14402;48.178;11.566;2024-03-22T01:05:24;10.4;;;9.3;;
26824;SDS011;14402;48.178;11.566;2024-03-22T01:05:54;10.4;;;9.3;;
26824;SDS011;14402;48.178;11.566;2024-03-22T01:06:24;10.4;;;9.3;;
26824;SDS011;14402;48.178;11.566;2024-03-22T01:06:54;10.2;;;9.2;;
26824;SDS011;14402;48.178;11.566;2024-03-22T01:07:24;10.1;;;9.1;;
26824;SDS011;14402;48.178;11.566;2024-03-22T01:07:54;10.1;;;9.1;;
26824;SDS011;14402;48.178;11.566;2024-03-22T01:08:24;10.1;;;9.1;;
26824;SDS011;14402;48.178;11.566;2024-03-22T01:08:54;10.2;;;9.2;;
26824;SDS011;14402;48.178;11.566;2024-03-22T01:09:25;10.4;;;9.4;;
26824;SDS011;14402;48.178;11.566;2024-03-22T01:09:55;10.4;;;9.4;;
26824;SDS011;14402;48.178;11.566;2024-03-22T01:10:25;10.4;;;9.4;;
26824;SDS011;14402;48.178;11.566;2024-03-22T01:10:55;10.4;;;9.3;;
26824;SDS011;14402;48.178;11.566;2024-03-22T01:11:25;10.3;;;9.2;;
26824;SDS011;14402;48.178;11.566;2024-03-22T01:11:55;10.3;;;9.2;;
26824;SDS011;14402;48.178;11.566;2024-03-22T01:12:25;10.3;;;9.2;;
26824;SDS011;14402;48.178;11.566;2024-03-22T01:12:55;10.1;;;9.0;;
26824;SDS011;14402;48.178;11.566;2024-03-22T01:13:25;9.9;;;8.9;;
26824;SDS011;14402;48.178;11.566;2024-03-22T01:13:55;9.9;;;8.9;;
26824;SDS011;14402;48.178;11.566;2024-03-22T01:14:25;9.9;;;8.9;;
26824;SDS011;14402;48.178;11.566;2024-03-22T01:14:55;9.9;;;8.9;;
26824;SDS011;14402;48.178;11.566;2024-03-22T01:15:25;9.8;;;8.9;;
26824;SDS011;14402;48.178;11.566;2024-03-22T01:15:55;9.8;;;8.9;;
26824;SDS011;14402;48.178;11.566;2024-03-22T01:16:25;9.8;;;8.9;;
26824;SDS011;14402;48.178;11.566;2024-03-22T01:16:55;9.9;;;8.8;;
26824;SDS011;14402;48.178;11.566;2024-03-22T01:17:26;10.0;;;8.6;;
26824;SDS011;14402;48.178;11.566;2024-03-22T01:17:55;10.0;;;8.6;;
26824;SDS011;14402;48.178;11.566;2024-03-22T01:18:26;10.0;;;8.6;;
26824;SDS011;14402;48.178;11.566;2024-03-22T01:18:55;10.2;;;9.0;;
26824;SDS011;14402;48.178;11.566;2024-03-22T01:19:26;10.4;;;9.3;;
26824;SDS011;14402;48.178;11.566;2024-03-22T01:19:56;10.4;;;9.3;;
26824;SDS011;14402;48.178;11.566;2024-03-22T01:20:26;10.4;;;9.3;;
26824;SDS011;14402;48.178;11.566;2024-03-22T01:20:56;10.4;;;9.3;;
26824;SDS011;14402;48.178;11.566;2024-03-22T01:21:26;10.5;;;9.3;;
26824;SDS011;14402;48.178;11.566;2024-03-22T01:21:56;10.5;;;9.3;;
26824;SDS011;14402;48.178;11.566;2024-03-22T01:22:26;10.5;;;9.3;;
26824;SDS011;14402;48.178;11.566;2024-03-22T01:22:56;10.2;;;9.2;;
26824;SDS011;14402;48.178;11.566;2024-03-22T01:23:26;10.0;;;9.1;;
26824;SDS011;14402;48.178;11.566;2024-03-22T01:23:56;10.0;;;9.1;;
26824;SDS011;14402;48.178;11.566;2024-03-22T01:24:26;10.0;;;9.1;;
26824;SDS011;14402;48.178;11.566;2024-03-22T01:24:56;10.1;;;9.1;;
26824;SDS011;14402;48.178;11.566;2024-03-22T01:25:27;10.2;;;9.2;;
26824;SDS011;14402;48.178;11.566;2024-03-22T01:25:56;10.2;;;9.2;;
26824;SDS011;14402;48.178;11.566;2024-03-22T01:26:26;10.2;;;9.2;;
26824;SDS011;14402;48.178;11.566;2024-03-22T01:26:56;10.5;;;9.5;;
26824;SDS011;14402;48.178;11.566;2024-03-22T01:27:27;10.9;;;9.8;;
26824;SDS011;14402;48.178;11.566;2024-03-22T01:27:57;10.9;;;9.8;;
26824;SDS011;14402;48.178;11.566;2024-03-22T01:28:27;10.9;;;9.8;;
26824;SDS011;14402;48.178;11.566;2024-03-22T01:28:57;10.4;;;9.3;;
26824;SDS011;14402;48.178;11.566;2024-03-22T01:29:27;9.8;;;8.8;;
26824;SDS011;14402;48.178;11.566;2024-03-22T01:29:57;9.8;;;8.8;;
26824;SDS011;14402;48.178;11.566;2024-03-22T01:30:27;9.8;;;8.8;;
26824;SDS011;14402;48.178;11.566;2024-03-22T01:30:57;9.6;;;8.7;;
26824;SDS011;14402;48.178;11.566;2024-03-22T01:31:27;9.5;;;8.6;;
26824;SDS011;14402;48.178;11.566;2024-03-22T01:31:57;9.5;;;8.6;;
26824;SDS011;14402;48.178;11.566;2024-03-22T01:32:27;9.5;;;8.6;;
26824;SDS011;14402;48.178;11.566;2024-03-22T01:32:57;9.8;;;8.9;;
26824;SDS011;14402;48.178;11.566;2024-03-22T01:33:27;10.0;;;9.1;;
26824;SDS011;14402;48.178;11.566;2024-03-22T01:33:57;10.0;;;9.1;;
26824;SDS011;14402;48.178;11.566;2024-03-22T01:34:27;10.0;;;9.1;;
26824;SDS011;14402;48.178;11.566;2024-03-22T01:34:57;10.3;;;9.3;;
26824;SDS011;14402;48.178;11.566;2024-03-22T01:35:27;10.6;;;9.5;;
26824;SDS011;14402;48.178;11.566;2024-03-22T01:35:57;10.6;;;9.5;;
26824;SDS011;14402;48.178;11.566;2024-03-22T01:36:28;10.6;;;9.5;;
26824;SDS011;14402;48.178;11.566;2024-03-22T01:36:58;10.6;;;9.4;;
26824;SDS011;14402;48.178;11.566;2024-03-22T01:37:28;10.5;;;9.4;;
26824;SDS011;14402;48.178;11.566;2024-03-22T01:37:58;10.5;;;9.4;;
26824;SDS011;14402;48.178;11.566;2024-03-22T01:38:28;10.5;;;9.4;;
26824;SDS011;14402;48.178;11.566;2024-03-22T01:38:58;10.7;;;9.6;;
26824;SDS011;14402;48.178;11.566;2024-03-22T01:39:28;10.9;;;9.9;;
26824;SDS011;14402;48.178;11.566;2024-03-22T01:39:58;10.9;;;9.9;;
26824;SDS011;14402;48.178;11.566;2024-03-22T01:40:28;10.9;;;9.9;;
26824;SDS011;14402;48.178;11.566;2024-03-22T01:40:58;10.4;;;9.4;;
26824;SDS011;14402;48.178;11.566;2024-03-22T01:41:28;10.0;;;9.0;;
26824;SDS011;14402;48.178;11.566;2024-03-22T01:41:58;10.0;;;9.0;;
26824;SDS011;14402;48.178;11.566;2024-03-22T01:42:28;10.0;;;9.0;;
26824;SDS011;14402;48.178;11.566;2024-03-22T01:42:58;10.1;;;9.1;;
26824;SDS011;14402;48.178;11.566;2024-03-22T01:43:28;10.2;;;9.1;;
26824;SDS011;14402;48.178;11.566;2024-03-22T01:43:58;10.2;;;9.1;;
26824;SDS011;14402;48.178;11.566;2024-03-22T01:44:29;10.2;;;9.1;;
26824;SDS011;14402;48.178;11.566;2024-03-22T01:44:58;10.4;;;9.1;;
26824;SDS011;14402;48.178;11.566;2024-03-22T01:45:31;10.6;;;9.0;;
26824;SDS011;14402;48.178;11.566;2024-03-22T01:45:59;10.6;;;9.0;;
26824;SDS011;14402;48.178;11.566;2024-03-22T01:46:29;10.6;;;9.0;;
26824;SDS011;14402;48.178;11.566;2024-03-22T01:46:59;10.4;;;9.1;;
26824;SDS011;14402;48.178;11.566;2024-03-22T01:47:29;10.2;;;9.2;;
26824;SDS011;14402;48.178;11.566;2024-03-22T01:47:59;10.2;;;9.2;;
26824;SDS011;14402;48.178;11.566;2024-03-22T01:48:29;10.2;;;9.2;;
26824;SDS011;14402;48.178;11.566;2024-03-22T01:48:59;10.5;;;9.4;;
26824;SDS011;14402;48.178;11.566;2024-03-22T01:49:29;10.8;;;9.5;;
26824;SDS011;14402;48.178;11.566;2024-03-22T01:49:59;10.8;;;9.5;;
26824;SDS011;14402;48.178;11.566;2024-03-22T01:50:29;10.8;;;9.5;;
26824;SDS011;14402;48.178;11.566;2024-03-22T01:50:59;10.6;;;9.4;;
26824;SDS011;14402;48.178;11.566;2024-03-22T01:51:29;10.3;;;9.4;;
26824;SDS011;14402;48.178;11.566;2024-03-22T01:51:59;10.3;;;9.4;;
26824;SDS011;14402;48.178;11.566;2024-03-22T01:52:29;10.3;;;9.4;;
26824;SDS011;14402;48.178;11.566;2024-03-22T01:52:59;10.9;;;9.5;;
26824;SDS011;14402;48.178;11.566;2024-03-22T01:53:29;11.5;;;9.6;;
26824;SDS011;14402;48.178;11.566;2024-03-22T01:54:00;11.5;;;9.6;;
26824;SDS011;14402;48.178;11.566;2024-03-22T01:54:30;11.5;;;9.6;;
26824;SDS011;14402;48.178;11.566;2024-03-22T01:55:00;10.8;;;9.4;;
26824;SDS011;14402;48.178;11.566;2024-03-22T01:55:30;10.1;;;9.1;;
26824;SDS011;14402;48.178;11.566;2024-03-22T01:56:00;10.1;;;9.1;;
26824;SDS011;14402;48.178;11.566;2024-03-22T01:56:30;10.1;;;9.1;;
26824;SDS011;14402;48.178;11.566;2024-03-22T01:57:00;9.9;;;9.0;;
26824;SDS011;14402;48.178;11.566;2024-03-22T01:57:30;9.7;;;8.8;;
26824;SDS011;14402;48.178;11.566;2024-03-22T01:58:00;9.7;;;8.8;;
26824;SDS011;14402;48.178;11.566;2024-03-22T01:58:30;9.7;;;8.8;;
26824;SDS011;14402;48.178;11.566;2024-03-22T01:59:00;9.9;;;9.0;;
26824;SDS011;14402;48.178;11.566;2024-03-22T01:59:30;10.2;;;9.1;;
26824;SDS011;14402;48.178;11.566;2024-03-22T02:00:00;10.2;;;9.1;;
26824;SDS011;14402;48.178;11.566;2024-03-22T02:00:30;10.2;;;9.1;;
26824;SDS011;14402;48.178;11.566;2024-03-22T02:01:00;10.0;;;9.0;;
26824;SDS011;14402;48.178;11.566;2024-03-22T02:01:30;9.9;;;8.9;;
26824;SDS011;14402;48.178;11.566;2024-03-22T02:02:00;9.9;;;8.9;;
26824;SDS011;14402;48.178;11.566;2024-03-22T02:02:30;9.9;;;8.9;;
26824;SDS011;14402;48.178;11.566;2024-03-22T02:03:00;10.1;;;9.2;;
26824;SDS011;14402;48.178;11.566;2024-03-22T02:03:31;10.4;;;9.5;;
26824;SDS011;14402;48.178;11.566;2024-03-22T02:04:01;10.4;;;9.5;;
26824;SDS011;14402;48.178;11.566;2024-03-22T02:04:31;10.4;;;9.5;;
26824;SDS011;14402;48.178;11.566;2024-03-22T02:05:10;10.6;;;9.5;;
26824;SDS011;14402;48.178;11.566;2024-03-22T02:05:31;10.8;;;9.5;;
26824;SDS011;14402;48.178;11.566;2024-03-22T02:06:01;10.8;;;9.5;;
26824;SDS011;14402;48.178;11.566;2024-03-22T02:06:31;10.8;;;9.5;;
26824;SDS011;14402;48.178;11.566;2024-03-22T02:07:01;10.7;;;9.5;;
26824;SDS011;14402;48.178;11.566;2024-03-22T02:07:31;10.6;;;9.5;;
26824;SDS011;14402;48.178;11.566;2024-03-22T02:08:01;10.6;;;9.5;;
26824;SDS011;14402;48.178;11.566;2024-03-22T02:08:31;10.6;;;9.5;;
26824;SDS011;14402;48.178;11.566;2024-03-22T02:09:01;11.1;;;9.2;;
26824;SDS011;14402;48.178;11.566;2024-03-22T02:09:31;11.6;;;8.9;;
26824;SDS011;14402;48.178;11.566;2024-03-22T02:10:01;11.6;;;8.9;;
26824;SDS011;14402;48.178;11.566;2024-03-22T02:10:31;11.6;;;8.9;;
26824;SDS011;14402;48.178;11.566;2024-03-22T02:11:01;11.3;;;9.3;;
26824;SDS011;14402;48.178;11.566;2024-03-22T02:11:31;11.0;;;9.7;;
26824;SDS011;14402;48.178;11.566;2024-03-22T02:12:02;11.0;;;9.7;;
26824;SDS011;14402;48.178;11.566;2024-03-22T02:12:32;11.0;;;9.7;;
26824;SDS011;14402;48.178;11.566;2024-03-22T02:13:02;10.6;;;9.4;;
26824;SDS011;14402;48.178;11.566;2024-03-22T02:13:32;10.1;;;9.1;;
26824;SDS011;14402;48.178;11.566;2024-03-22T02:14:02;10.1;;;9.1;;
26824;SDS011;14402;48.178;11.566;2024-03-22T02:14:32;10.1;;;9.1;;
26824;SDS011;14402;48.178;11.566;2024-03-22T02:15:02;10.4;;;9.4;;
26824;SDS011;14402;48.178;11.566;2024-03-22T02:15:32;10.7;;;9.6;;
26824;SDS011;14402;48.178;11.566;2024-03-22T02:16:02;10.7;;;9.6;;
26824;SDS011;14402;48.178;11.566;2024-03-22T02:16:32;10.7;;;9.6;;
26824;SDS011;14402;48.178;11.566;2024-03-22T02:17:02;10.4;;;9.4;;
26824;SDS011;14402;48.178;11.566;2024-03-22T02:17:33;10.1;;;9.1;;
26824;SDS011;14402;48.178;11.566;2024-03-22T02:18:02;10.1;;;9.1;;
26824;SDS011;14402;48.178;11.566;2024-03-22T02:18:32;10.1;;;9.1;;
26824;SDS011;14402;48.178;11.566;2024-03-22T02:19:02;10.1;;;9.1;;
26824;SDS011;14402;48.178;11.566;2024-03-22T02:19:32;10.2;;;9.2;;
26824;SDS011;14402;48.178;11.566;2024-03-22T02:20:03;10.2;;;9.2;;
26824;SDS011;14402;48.178;11.566;2024-03-22T02:20:32;10.2;;;9.2;;
26824;SDS011;14402;48.178;11.566;2024-03-22T02:21:03;10.3;;;9.3;;
26824;SDS011;14402;48.178;11.566;2024-03-22T02:21:33;10.4;;;9.4;;
26824;SDS011;14402;48.178;11.566;2024-03-22T02:22:03;10.4;;;9.4;;
26824;SDS011;14402;48.178;11.566;2024-03-22T02:22:33;10.4;;;9.4;;
26824;SDS011;14402;48.178;11.566;2024-03-22T02:23:03;10.9;;;9.6;;
26824;SDS011;14402;48.178;11.566;2024-03-22T02:23:33;11.5;;;9.8;;
26824;SDS011;14402;48.178;11.566;2024-03-22T02:24:03;11.5;;;9.8;;
26824;SDS011;14402;48.178;11.566;2024-03-22T02:24:33;11.5;;;9.8;;
26824;SDS011;14402;48.178;11.566;2024-03-22T02:25:03;11.3;;;9.9;;
26824;SDS011;14402;48.178;11.566;2024-03-22T02:25:33;11.1;;;10.0;;
26824;SDS011;14402;48.178;11.566;2024-03-22T02:26:03;11.1;;;10.0;;
26824;SDS011;14402;48.178;11.566;2024-03-22T02:26:33;11.1;;;10.0;;
26824;SDS011;14402;48.178;11.566;2024-03-22T02:27:03;10.6;;;9.6;;
26824;SDS011;14402;48.178;11.566;2024-03-22T02:27:33;10.1;;;9.1;;
26824;SDS011;14402;48.178;11.566;2024-03-22T02:28:03;10.1;;;9.1;;
26824;SDS011;14402;48.178;11.566;2024-03-22T02:28:34;10.1;;;9.1;;
26824;SDS011;14402;48.178;11.566;2024-03-22T02:29:03;10.2;;;9.1;;
26824;SDS011;14402;48.178;11.566;2024-03-22T02:29:33;10.3;;;9.2;;
26824;SDS011;14402;48.178;11.566;2024-03-22T02:30:04;10.3;;;9.2;;
26824;SDS011;14402;48.178;11.566;2024-03-22T02:30:33;10.3;;;9.2;;
26824;SDS011;14402;48.178;11.566;2024-03-22T02:31:04;10.2;;;9.1;;
26824;SDS011;14402;48.178;11.566;2024-03-22T02:31:34;10.1;;;9.1;;
26824;SDS011;14402;48.178;11.566;2024-03-22T02:32:04;10.1;;;9.1;;
26824;SDS011;14402;48.178;11.566;2024-03-22T02:32:34;10.1;;;9.1;;
26824;SDS011;14402;48.178;11.566;2024-03-22T02:33:04;10.4;;;9.4;;
26824;SDS011;14402;48.178;11.566;2024-03-22T02:33:34;10.7;;;9.6;;
26824;SDS011;14402;48.178;11.566;2024-03-22T02:34:04;10.7;;;9.6;;
26824;SDS011;14402;48.178;11.566;2024-03-22T02:34:34;10.7;;;9.6;;
26824;SDS011;14402;48.178;11.566;2024-03-22T02:35:04;10.9;;;9.7;;
26824;SDS011;14402;48.178;11.566;2024-03-22T02:35:34;11.0;;;9.8;;
26824;SDS011;14402;48.178;11.566;2024-03-22T02:36:04;11.0;;;9.8;;
26824;SDS011;14402;48.178;11.566;2024-03-22T02:36:34;11.0;;;9.8;;
26824;SDS011;14402;48.178;11.566;2024-03-22T02:37:04;10.9;;;9.8;;
26824;SDS011;14402;48.178;11.566;2024-03-22T02:37:34;10.7;;;9.7;;
26824;SDS011;14402;48.178;11.566;2024-03-22T02:38:04;10.7;;;9.7;;
26824;SDS011;14402;48.178;11.566;2024-03-22T02:38:34;10.7;;;9.7;;
26824;SDS011;14402;48.178;11.566;2024-03-22T02:39:04;10.9;;;9.8;;
26824;SDS011;14402;48.178;11.566;2024-03-22T02:39:35;11.0;;;9.9;;
26824;SDS011;14402;48.178;11.566;2024-03-22T02:40:05;11.0;;;9.9;;
26824;SDS011;14402;48.178;11.566;2024-03-22T02:40:35;11.0;;;9.9;;
26824;SDS011;14402;48.178;11.566;2024-03-22T02:41:05;11.1;;;9.7;;
26824;SDS011;14402;48.178;11.566;2024-03-22T02:41:35;11.2;;;9.5;;
26824;SDS011;14402;48.178;11.566;2024-03-22T02:42:05;11.2;;;9.5;;
26824;SDS011;14402;48.178;11.566;2024-03-22T02:42:35;11.2;;;9.5;;
26824;SDS011;14402;48.178;11.566;2024-03-22T02:43:05;10.9;;;9.6;;
26824;SDS011;14402;48.178;11.566;2024-03-22T02:43:35;10.6;;;9.6;;
26824;SDS011;14402;48.178;11.566;2024-03-22T02:44:05;10.6;;;9.6;;
26824;SDS011;14402;48.178;11.566;2024-03-22T02:44:35;10.6;;;9.6;;
26824;SDS011;14402;48.178;11.566;2024-03-22T02:45:05;10.9;;;9.6;;
26824;SDS011;14402;48.178;11.566;2024-03-22T02:45:35;11.1;;;9.6;;
26824;SDS011;14402;48.178;11.566;2024-03-22T02:46:05;11.1;;;9.6;;
26824;SDS011;14402;48.178;11.566;2024-03-22T02:46:35;11.1;;;9.6;;
26824;SDS011;14402;48.178;11.566;2024-03-22T02:47:05;10.9;;;9.6;;
26824;SDS011;14402;48.178;11.566;2024-03-22T02:47:35;10.7;;;9.6;;
26824;SDS011;14402;48.178;11.566;2024-03-22T02:48:06;10.7;;;9.6;;
26824;SDS011;14402;48.178;11.566;2024-03-22T02:48:36;10.7;;;9.6;;
26824;SDS011;14402;48.178;11.566;2024-03-22T02:49:06;11.4;;;9.9;;
26824;SDS011;14402;48.178;11.566;2024-03-22T02:49:37;12.2;;;10.2;;
26824;SDS011;14402;48.178;11.566;2024-03-22T02:50:06;12.2;;;10.2;;
26824;SDS011;14402;48.178;11.566;2024-03-22T02:50:36;12.2;;;10.2;;
26824;SDS011;14402;48.178;11.566;2024-03-22T02:51:06;11.6;;;10.0;;
26824;SDS011;14402;48.178;11.566;2024-03-22T02:51:36;11.0;;;9.9;;
26824;SDS011;14402;48.178;11.566;2024-03-22T02:52:06;11.0;;;9.9;;
26824;SDS011;14402;48.178;11.566;2024-03-22T02:52:36;11.0;;;9.9;;
26824;SDS011;14402;48.178;11.566;2024-03-22T02:53:06;10.9;;;9.9;;
26824;SDS011;14402;48.178;11.566;2024-03-22T02:53:36;10.9;;;9.8;;
26824;SDS011;14402;48.178;11.566;2024-03-22T02:54:06;10.9;;;9.8;;
26824;SDS011;14402;48.178;11.566;2024-03-22T02:54:36;10.9;;;9.8;;
26824;SDS011;14402;48.178;11.566;2024-03-22T02:55:06;11.3;;;10.1;;
26824;SDS011;14402;48.178;11.566;2024-03-22T02:55:37;11.7;;;10.5;;
26824;SDS011;14402;48.178;11.566;2024-03-22T02:56:06;11.7;;;10.5;;
26824;SDS011;14402;48.178;11.566;2024-03-22T02:56:36;11.7;;;10.5;;
26824;SDS011;14402;48.178;11.566;2024-03-22T02:57:06;11.2;;;10.1;;
26824;SDS011;14402;48.178;11.566;2024-03-22T02:57:37;10.8;;;9.7;;
26824;SDS011;14402;48.178;11.566;2024-03-22T02:58:07;10.8;;;9.7;;
26824;SDS011;14402;48.178;11.566;2024-03-22T02:58:37;10.8;;;9.7;;
26824;SDS011;14402;48.178;11.566;2024-03-22T02:59:07;11.6;;;9.7;;
26824;SDS011;14402;48.178;11.566;2024-03-22T02:59:37;12.3;;;9.7;;
26824;SDS011;14402;48.178;11.566;2024-03-22T03:00:07;12.3;;;9.7;;
26824;SDS011;14402;48.178;11.566;2024-03-22T03:00:37;12.3;;;9.7;;
26824;SDS011;14402;48.178;11.566;2024-03-22T03:01:07;11.6;;;9.8;;